Time;durP1;ratioP1;P1;durP2;ratioP2;P2;SDS_P1;SDS_P2;PMS_P1;PMS_P2;Temp;Humidity;BMP_temperature;BMP_pressure;BME280_temperature;BME280_humidity;BME280_pressure;Samples;Min_cycle;Max_cycle;Signal;HPM_P1;HPM_P2
2023/01/31 06:40:50;;;;;;;;;12.50;12.50;;;;;17.56;41.63;102585.97;5054727;28;45958;-75
2023/01/31 06:43:15;;;;;;;;;14.25;12.25;;;;;17.91;42.29;102591.22;5037352;28;45530;-75
2023/01/31 06:45:44;;;;;;;;;12.50;12.25;;;;;18.49;42.45;102606.81;5042208;28;45459;-75
2023/01/31 06:48:11;;;;;;;;;14.25;13.25;;;;;19.08;42.67;102600.69;5037828;28;45381;-75
2023/01/31 06:50:36;;;;;;;;;15.75;12.75;;;;;19.73;42.54;102602.06;5041899;28;46263;-75
2023/01/31 06:53:02;;;;;;;;;14.50;13.00;;;;;20.32;41.97;102596.56;5041037;28;45606;-77
2023/01/31 06:55:27;;;;;;;;;14.25;14.25;;;;;20.80;41.60;102605.00;5034817;28;45789;-76
2023/01/31 06:57:54;;;;;;;;;14.00;14.00;;;;;21.25;41.96;102605.63;5039395;28;45471;-76
2023/01/31 07:00:20;;;;;;;;;10.75;10.25;;;;;21.66;41.31;102620.72;5040723;28;46201;-76
2023/01/31 07:02:46;;;;;;;;;14.00;12.50;;;;;21.97;41.17;102613.13;5039880;28;45414;-76
2023/01/31 07:05:12;;;;;;;;;13.00;13.00;;;;;22.27;40.84;102624.47;5040642;28;45507;-76
2023/01/31 07:07:37;;;;;;;;;13.25;11.25;;;;;22.50;40.49;102611.94;5037158;28;45474;-73
2023/01/31 07:10:03;;;;;;;;;13.00;13.00;;;;;22.75;40.27;102620.91;5036507;28;45514;-73
2023/01/31 07:12:28;;;;;;;;;13.75;12.75;;;;;22.96;39.93;102617.50;5050130;28;45512;-78
2023/01/31 07:14:53;;;;;;;;;13.50;13.50;;;;;23.13;39.88;102618.91;5047984;28;45682;-78
2023/01/31 07:17:20;;;;;;;;;11.00;11.00;;;;;23.28;39.43;102611.41;5050117;28;45484;-77
2023/01/31 07:19:45;;;;;;;;;12.67;11.00;;;;;23.45;40.12;102605.69;5038031;27;47055;-75
2023/01/31 07:22:10;;;;;;;;;13.75;12.50;;;;;23.59;39.77;102613.56;5030011;28;46839;-75
2023/01/31 07:24:36;;;;;;;;;11.25;10.50;;;;;23.69;39.61;102608.25;5042030;27;45733;-76
2023/01/31 07:27:01;;;;;;;;;11.33;11.33;;;;;23.81;39.10;102601.84;5044974;28;45786;-75
2023/01/31 07:29:27;;;;;;;;;11.00;10.00;;;;;23.94;39.29;102619.78;5049846;28;45729;-77
2023/01/31 07:31:53;;;;;;;;;13.00;12.00;;;;;24.04;39.19;102609.91;5035074;28;45574;-78
2023/01/31 07:34:21;;;;;;;;;12.33;12.33;;;;;24.13;38.90;102607.44;5032651;28;45509;-77
2023/01/31 07:36:47;;;;;;;;;13.33;11.67;;;;;24.23;38.81;102621.13;5038137;28;45568;-79
2023/01/31 07:39:13;;;;;;;;;10.67;10.67;;;;;24.32;38.76;102612.22;5047259;28;46324;-79
2023/01/31 07:41:38;;;;;;;;;10.67;10.67;;;;;24.40;38.51;102614.28;5060039;28;45511;-77
2023/01/31 07:44:07;;;;;;;;;13.00;12.67;;;;;24.51;38.44;102616.06;5054903;28;45471;-76
2023/01/31 07:46:32;;;;;;;;;12.00;11.33;;;;;24.56;38.31;102617.41;5054243;28;46042;-77
2023/01/31 07:48:58;;;;;;;;;13.00;11.33;;;;;24.65;38.50;102620.34;5058188;28;45535;-76
2023/01/31 07:51:23;;;;;;;;;14.00;11.00;;;;;24.71;38.13;102617.09;5047530;28;45558;-76
2023/01/31 07:53:49;;;;;;;;;12.67;12.00;;;;;24.78;38.08;102615.59;5055742;28;45448;-76
2023/01/31 07:56:17;;;;;;;;;11.67;10.00;;;;;24.84;37.93;102609.66;5054565;28;45449;-77
2023/01/31 07:58:44;;;;;;;;;10.67;7.33;;;;;24.92;38.11;102606.28;5044388;28;45417;-77
2023/01/31 08:04:15;;;;;;;;;12.00;10.67;;;;;25.04;37.58;102619.78;5053928;28;45622;-75
2023/01/31 08:06:43;;;;;;;;;8.00;7.00;;;;;25.05;37.40;102614.22;5041783;28;45498;-76
2023/01/31 08:09:08;;;;;;;;;9.00;9.00;;;;;25.10;37.76;102628.25;5054609;28;46027;-75
2023/01/31 08:11:34;;;;;;;;;11.67;10.00;;;;;25.13;37.61;102621.69;5054880;28;46403;-76
2023/01/31 08:13:59;;;;;;;;;13.00;11.33;;;;;25.13;37.90;102622.56;5061341;28;45376;-76
2023/01/31 08:16:25;;;;;;;;;12.33;10.33;;;;;25.22;37.42;102628.19;5055436;28;45410;-75
2023/01/31 08:18:51;;;;;;;;;11.33;9.67;;;;;25.23;37.17;102614.47;5053148;28;46188;-76
2023/01/31 08:21:16;;;;;;;;;11.00;10.00;;;;;25.31;37.48;102619.22;5052632;28;45795;-76
2023/01/31 08:23:43;;;;;;;;;12.33;12.33;;;;;25.34;37.29;102616.22;5054968;28;46128;-76
2023/01/31 08:26:14;;;;;;;;;11.00;11.00;;;;;25.39;37.04;102615.84;5050047;28;45721;-78
2023/01/31 08:28:40;;;;;;;;;11.67;10.33;;;;;25.42;36.92;102617.41;5035932;28;47190;-75
2023/01/31 08:31:06;;;;;;;;;11.33;10.33;;;;;25.44;37.11;102619.00;5055082;28;45441;-75
2023/01/31 08:33:32;;;;;;;;;11.00;11.00;;;;;25.45;37.02;102623.44;5055210;28;45423;-75
2023/01/31 08:36:07;;;;;;;;;14.67;11.67;;;;;25.52;37.49;102630.06;5055050;28;45378;-74
2023/01/31 08:38:33;;;;;;;;;10.00;10.00;;;;;25.56;36.73;102625.25;5053293;28;46729;-75
2023/01/31 08:40:58;;;;;;;;;12.33;12.00;;;;;25.57;36.83;102632.38;5053306;28;46323;-75
2023/01/31 08:43:23;;;;;;;;;12.33;10.67;;;;;25.58;37.31;102627.81;5054279;28;45483;-81
2023/01/31 08:45:49;;;;;;;;;13.00;11.67;;;;;25.56;36.59;102633.41;5054448;28;50630;-77
2023/01/31 08:48:14;;;;;;;;;9.33;9.33;;;;;25.54;36.77;102638.06;5050742;28;51880;-76
2023/01/31 08:50:39;;;;;;;;;8.00;6.67;;;;;25.54;36.89;102654.38;5049575;28;45460;-75
2023/01/31 08:53:05;;;;;;;;;10.00;10.00;;;;;25.53;36.80;102668.97;5043641;28;45514;-74
2023/01/31 08:55:33;;;;;;;;;10.00;10.00;;;;;25.51;36.68;102668.25;5046873;28;45507;-74
2023/01/31 08:58:00;;;;;;;;;12.00;10.67;;;;;25.51;36.51;102660.94;5043143;28;46248;-75
2023/01/31 09:00:26;;;;;;;;;9.33;9.33;;;;;25.52;36.58;102669.97;5049601;28;45591;-75
2023/01/31 09:02:53;;;;;;;;;12.00;10.00;;;;;25.53;36.66;102671.69;5051007;28;45535;-75
2023/01/31 09:05:19;;;;;;;;;7.67;7.33;;;;;25.54;36.36;102654.38;5054208;28;45777;-74
2023/01/31 09:07:44;;;;;;;;;8.33;8.33;;;;;25.52;36.89;102665.41;5036654;28;47553;-75
2023/01/31 09:10:10;;;;;;;;;10.67;10.67;;;;;25.51;36.30;102651.94;5042516;28;45673;-74
2023/01/31 09:12:35;;;;;;;;;8.33;8.33;;;;;25.51;36.51;102655.50;5053024;28;45542;-75
2023/01/31 09:15:02;;;;;;;;;9.67;9.67;;;;;25.51;35.95;102654.66;5054459;28;45531;-75
2023/01/31 09:17:28;;;;;;;;;7.67;7.00;;;;;25.52;36.50;102654.53;5041151;28;46153;-74
2023/01/31 09:19:53;;;;;;;;;13.00;11.00;;;;;25.50;36.46;102651.06;5053922;28;45490;-74
2023/01/31 09:22:19;;;;;;;;;9.00;9.00;;;;;25.48;36.34;102635.91;5043780;28;45528;-82
2023/01/31 09:24:45;;;;;;;;;11.00;11.00;;;;;25.48;35.93;102642.19;5045616;28;47002;-78
2023/01/31 09:27:11;;;;;;;;;15.00;10.00;;;;;25.49;36.30;102632.16;5058994;28;46430;-78
2023/01/31 09:29:37;;;;;;;;;11.67;10.33;;;;;25.48;35.93;102639.47;5052823;28;45706;-78
2023/01/31 09:32:02;;;;;;;;;11.33;10.00;;;;;25.44;36.01;102643.47;5052096;28;46035;-74
2023/01/31 09:34:28;;;;;;;;;9.00;9.00;;;;;25.38;36.01;102642.13;5048271;28;45587;-74
2023/01/31 09:36:56;;;;;;;;;13.33;8.33;;;;;25.34;36.27;102650.72;5053222;28;46476;-80
2023/01/31 09:39:21;;;;;;;;;11.33;11.33;;;;;25.29;36.02;102658.41;5050989;28;45385;-79
2023/01/31 09:41:51;;;;;;;;;10.00;10.00;;;;;25.27;36.14;102655.81;5052094;28;47172;-79
2023/01/31 09:44:20;;;;;;;;;11.00;11.00;;;;;25.22;35.96;102648.06;5047606;28;45523;-80
2023/01/31 09:47:05;;;;;;;;;11.00;11.00;;;;;25.27;35.93;102662.09;5048940;28;45376;-76
2023/01/31 09:49:47;;;;;;;;;11.33;9.00;;;;;25.30;35.92;102666.41;5045599;28;45735;-76
2023/01/31 09:52:13;;;;;;;;;10.00;9.33;;;;;25.30;35.78;102658.25;5048733;28;45487;-74
2023/01/31 09:54:40;;;;;;;;;9.33;9.00;;;;;25.29;36.05;102672.00;5045056;28;46955;-76
2023/01/31 09:57:40;;;;;;;;;12.33;12.33;;;;;25.27;35.75;102666.69;5052884;28;46170;-76
2023/01/31 10:00:13;;;;;;;;;11.33;9.67;;;;;25.28;35.89;102657.53;5043258;28;45487;-76
2023/01/31 10:02:58;;;;;;;;;8.67;8.67;;;;;25.29;35.94;102661.97;5044813;28;45513;-78
2023/01/31 10:05:42;;;;;;;;;11.00;9.67;;;;;25.30;36.14;102665.56;5044668;28;45368;-78
2023/01/31 10:08:20;;;;;;;;;10.00;9.00;;;;;25.28;35.88;102660.25;5050504;28;46163;-80
2023/01/31 10:10:58;;;;;;;;;8.67;8.67;;;;;25.29;35.98;102661.13;5038689;28;45579;-79
2023/01/31 10:13:30;;;;;;;;;10.67;10.33;;;;;25.26;35.46;102663.09;5044075;28;45811;-81
2023/01/31 10:16:13;;;;;;;;;8.00;7.00;;;;;25.18;35.68;102662.91;5043431;28;45433;-81
2023/01/31 10:18:44;;;;;;;;;8.33;8.00;;;;;25.11;35.62;102664.44;5042525;28;46771;-81
2023/01/31 10:21:14;;;;;;;;;15.33;8.33;;;;;25.09;35.38;102666.44;5050997;28;45497;-84
2023/01/31 10:24:11;;;;;;;;;11.33;9.00;;;;;25.04;35.30;102672.25;5051220;28;45897;-84
2023/01/31 10:26:42;;;;;;;;;9.67;9.67;;;;;24.94;35.38;102669.50;5030833;28;45685;-84
2023/01/31 10:29:19;;;;;;;;;11.67;10.33;;;;;24.91;35.68;102660.72;5050749;28;45303;-83
2023/01/31 10:31:52;;;;;;;;;10.67;8.67;;;;;24.85;35.59;102664.84;5053101;28;45423;-82
2023/01/31 10:34:25;;;;;;;;;10.67;10.00;;;;;24.80;35.37;102665.19;5048056;28;45397;-83
2023/01/31 10:37:01;;;;;;;;;11.33;9.00;;;;;24.80;35.24;102669.78;5044872;28;45574;-83
2023/01/31 10:39:31;;;;;;;;;6.00;6.00;;;;;24.76;35.24;102671.88;5044965;28;46754;-83
2023/01/31 10:42:21;;;;;;;;;10.00;9.00;;;;;24.73;35.29;102675.72;5052229;28;45767;-82
2023/01/31 10:44:57;;;;;;;;;8.00;8.00;;;;;24.68;35.10;102671.69;5046016;28;45459;-79
2023/01/31 10:47:48;;;;;;;;;12.00;10.00;;;;;24.62;35.03;102667.63;5029378;28;45519;-79
2023/01/31 10:50:40;;;;;;;;;12.67;10.33;;;;;24.54;35.14;102654.69;5039533;28;46347;-74
2023/01/31 10:53:33;;;;;;;;;10.33;9.00;;;;;24.51;35.08;102651.34;5036592;28;45564;-72
2023/01/31 10:56:29;;;;;;;;;9.67;9.67;;;;;24.52;35.08;102643.09;5021061;28;45857;-72
2023/01/31 10:58:57;;;;;;;;;9.00;7.67;;;;;24.58;34.84;102633.56;5049944;28;45472;-74
2023/01/31 11:01:23;;;;;;;;;12.67;10.00;;;;;24.61;35.05;102628.75;5053409;28;46146;-74
2023/01/31 11:03:52;;;;;;;;;9.33;8.00;;;;;24.68;34.74;102631.78;5060044;28;45497;-79
2023/01/31 11:06:19;;;;;;;;;11.33;10.00;;;;;24.70;35.02;102632.53;5059282;28;45358;-73
2023/01/31 11:08:48;;;;;;;;;10.33;9.67;;;;;24.79;34.92;102644.47;5046825;28;45741;-77
2023/01/31 11:11:17;;;;;;;;;10.00;9.00;;;;;24.81;34.90;102631.59;5049964;28;45428;-76
2023/01/31 11:14:00;;;;;;;;;10.67;9.67;;;;;24.79;34.70;102633.59;5047364;28;45444;-75
2023/01/31 11:16:30;;;;;;;;;10.00;10.00;;;;;24.77;34.67;102632.84;5046427;28;45425;-76
2023/01/31 11:18:57;;;;;;;;;10.00;10.00;;;;;24.76;34.84;102627.59;5042215;28;45547;-76
2023/01/31 11:21:26;;;;;;;;;11.33;11.33;;;;;24.74;34.77;102631.25;5036512;28;45507;-76
2023/01/31 11:24:04;;;;;;;;;8.67;8.67;;;;;24.71;34.57;102619.81;5044359;28;45383;-78
2023/01/31 11:26:34;;;;;;;;;9.00;7.67;;;;;24.69;34.67;102619.94;5032945;28;45594;-76
2023/01/31 11:29:00;;;;;;;;;9.00;9.00;;;;;24.61;34.60;102600.75;5043782;28;45959;-77
2023/01/31 11:31:33;;;;;;;;;9.67;8.00;;;;;24.65;34.66;102604.94;5042532;28;46221;-79
2023/01/31 11:34:01;;;;;;;;;12.00;11.33;;;;;24.65;34.49;102607.66;5050156;28;45731;-79
2023/01/31 11:36:39;;;;;;;;;12.33;11.00;;;;;24.66;34.45;102597.63;5045922;28;46871;-78
2023/01/31 11:39:22;;;;;;;;;11.33;9.00;;;;;24.71;34.57;102595.38;5051028;28;45852;-79
2023/01/31 11:41:48;;;;;;;;;11.00;10.00;;;;;24.74;34.49;102597.84;5047598;28;46387;-79
2023/01/31 11:44:18;;;;;;;;;9.00;7.33;;;;;24.74;34.44;102600.56;5041792;28;45380;-79
2023/01/31 11:46:58;;;;;;;;;11.67;10.00;;;;;24.75;34.54;102596.84;5041070;28;45620;-79
2023/01/31 11:49:34;;;;;;;;;10.00;9.00;;;;;24.75;34.23;102588.69;5039708;28;45475;-79
2023/01/31 11:52:11;;;;;;;;;8.33;8.33;;;;;24.68;34.37;102573.94;5053685;28;46029;-80
2023/01/31 11:54:41;;;;;;;;;8.33;8.33;;;;;24.79;34.41;102576.56;5049293;28;47238;-79
2023/01/31 11:57:14;;;;;;;;;7.00;7.00;;;;;24.79;34.26;102578.41;5051433;28;45387;-79
2023/01/31 11:59:40;;;;;;;;;11.67;7.33;;;;;24.83;34.29;102580.78;5055470;28;45411;-80
2023/01/31 12:02:25;;;;;;;;;7.67;7.67;;;;;24.85;34.25;102578.78;5038267;28;47124;-77
2023/01/31 12:04:51;;;;;;;;;9.33;8.33;;;;;24.85;34.26;102573.34;5047994;28;46832;-74
2023/01/31 12:07:23;;;;;;;;;8.33;8.33;;;;;24.84;34.22;102571.63;5051822;28;45460;-73
2023/01/31 12:09:48;;;;;;;;;6.00;6.00;;;;;24.82;34.48;102557.31;5036326;28;45499;-74
2023/01/31 12:12:26;;;;;;;;;8.67;8.33;;;;;24.84;34.25;102570.75;5052545;28;46945;-76
2023/01/31 12:14:58;;;;;;;;;7.33;7.33;;;;;24.83;34.31;102564.50;5040860;28;45373;-75
2023/01/31 12:17:23;;;;;;;;;10.33;7.67;;;;;24.84;34.17;102559.91;5047196;28;45815;-75
2023/01/31 12:20:08;;;;;;;;;7.67;7.33;;;;;24.83;33.84;102556.34;5038893;28;45628;-74
2023/01/31 12:22:59;;;;;;;;;12.33;7.33;;;;;24.82;34.18;102551.00;5052488;28;46717;-76
2023/01/31 12:25:49;;;;;;;;;13.00;9.33;;;;;24.82;34.29;102545.56;5050544;28;45466;-76
2023/01/31 12:28:39;;;;;;;;;9.00;9.00;;;;;24.82;34.22;102551.88;5049848;28;46329;-76
2023/01/31 12:31:23;;;;;;;;;10.33;10.33;;;;;24.83;34.17;102550.03;5045191;28;45452;-75
2023/01/31 12:34:24;;;;;;;;;7.00;7.00;;;;;24.82;33.97;102546.44;5047447;28;46101;-76
2023/01/31 12:37:01;;;;;;;;;6.33;6.00;;;;;24.83;34.17;102541.88;5042671;28;45500;-74
2023/01/31 12:40:02;;;;;;;;;6.00;6.00;;;;;24.82;34.23;102538.31;5038548;28;45387;-79
2023/01/31 12:42:51;;;;;;;;;8.33;7.67;;;;;24.83;34.34;102537.34;5035779;28;45472;-76
2023/01/31 12:45:50;;;;;;;;;9.00;7.00;;;;;24.83;34.12;102528.31;5038889;28;46349;-77
2023/01/31 12:48:32;;;;;;;;;7.00;7.00;;;;;24.82;34.44;102518.41;5051682;28;45436;-78
2023/01/31 12:51:20;;;;;;;;;7.00;5.50;;;;;24.80;34.42;102517.72;5039678;28;45440;-79
2023/01/31 12:53:50;;;;;;;;;6.00;6.00;;;;;24.81;33.84;102522.13;5049791;28;45713;-79
2023/01/31 12:56:24;;;;;;;;;11.00;9.33;;;;;24.80;34.09;102517.72;5054813;28;46370;-79
2023/01/31 12:59:04;;;;;;;;;7.00;6.00;;;;;24.78;34.21;102515.13;5044039;28;45440;-79
2023/01/31 13:01:47;;;;;;;;;7.33;7.33;;;;;24.75;34.27;102518.09;5054172;28;45796;-79
2023/01/31 13:04:37;;;;;;;;;8.00;7.67;;;;;24.74;34.20;102514.50;5054923;28;45655;-79
2023/01/31 13:07:09;;;;;;;;;6.33;6.33;;;;;24.76;34.20;102508.94;5045236;28;45444;-79
2023/01/31 13:09:36;;;;;;;;;7.67;6.00;;;;;24.79;34.15;102505.09;5045016;28;45558;-79
2023/01/31 13:12:13;;;;;;;;;5.33;5.33;;;;;24.78;34.17;102492.53;5047394;28;45702;-81
2023/01/31 13:14:46;;;;;;;;;10.67;7.67;;;;;24.73;34.22;102487.50;5041750;28;45441;-76
2023/01/31 13:17:16;;;;;;;;;7.33;7.00;;;;;24.68;34.04;102477.03;5049066;28;45651;-75
2023/01/31 13:20:20;;;;;;;;;10.67;8.33;;;;;24.65;34.07;102490.03;5041716;28;45452;-75
2023/01/31 13:22:50;;;;;;;;;7.67;6.33;;;;;24.66;34.11;102498.03;5048753;28;45502;-76
2023/01/31 13:25:28;;;;;;;;;9.33;7.00;;;;;24.68;34.33;102476.19;5049196;28;45718;-76
2023/01/31 13:28:00;;;;;;;;;6.00;6.00;;;;;24.73;34.23;102482.94;5049749;28;46167;-76
2023/01/31 13:30:41;;;;;;;;;6.00;6.00;;;;;24.77;34.28;102475.34;5051170;28;45448;-76
2023/01/31 13:33:30;;;;;;;;;4.33;4.33;;;;;24.88;34.02;102462.75;5049344;28;45709;-75
2023/01/31 13:36:14;;;;;;;;;7.00;6.00;;;;;24.97;34.29;102470.91;5048789;28;45541;-76
2023/01/31 13:38:42;;;;;;;;;8.00;7.00;;;;;25.06;34.30;102463.78;5050988;28;45713;-75
2023/01/31 13:41:18;;;;;;;;;7.67;7.33;;;;;25.17;34.16;102456.56;5049302;28;45654;-76
2023/01/31 13:43:43;;;;;;;;;7.67;7.00;;;;;25.27;34.54;102441.13;5044664;28;45432;-75
2023/01/31 13:46:12;;;;;;;;;6.33;6.33;;;;;25.33;34.30;102437.84;5049659;28;45527;-74
2023/01/31 13:48:46;;;;;;;;;7.00;7.00;;;;;25.45;34.21;102449.47;5046155;28;45537;-74
2023/01/31 13:51:16;;;;;;;;;11.67;10.33;;;;;25.54;34.32;102445.03;5049380;28;45377;-76
2023/01/31 13:54:00;;;;;;;;;5.67;5.67;;;;;25.65;34.33;102463.13;5050219;28;45466;-74
2023/01/31 13:56:33;;;;;;;;;6.00;6.00;;;;;25.79;33.96;102461.84;5044408;28;45509;-78
2023/01/31 13:59:00;;;;;;;;;6.00;6.00;;;;;25.89;34.39;102464.56;5044705;28;46083;-77
2023/01/31 14:01:34;;;;;;;;;5.00;5.00;;;;;25.99;33.90;102467.28;5039615;28;45517;-75
2023/01/31 14:04:16;;;;;;;;;6.00;6.00;;;;;26.06;34.31;102462.97;5047221;28;45634;-75
2023/01/31 14:07:09;;;;;;;;;6.00;5.67;;;;;26.11;33.85;102435.34;5043339;28;45440;-74
2023/01/31 14:09:42;;;;;;;;;6.67;6.00;;;;;26.13;33.86;102438.78;5050524;28;46290;-75
2023/01/31 14:12:34;;;;;;;;;5.00;5.00;;;;;26.15;34.26;102434.91;5043636;28;45836;-75
2023/01/31 14:15:00;;;;;;;;;7.33;5.67;;;;;26.16;33.75;102442.06;5033776;28;45452;-75
2023/01/31 14:17:25;;;;;;;;;7.00;7.00;;;;;26.22;33.54;102446.06;5049697;28;45447;-75
2023/01/31 14:19:51;;;;;;;;;6.67;6.00;;;;;26.23;34.19;102447.78;5049923;28;46101;-75
2023/01/31 14:22:23;;;;;;;;;6.00;6.00;;;;;26.22;34.12;102447.91;5048003;28;45430;-74
2023/01/31 14:24:49;;;;;;;;;4.67;4.67;;;;;26.18;34.11;102441.91;5053628;28;45467;-76
2023/01/31 14:27:31;;;;;;;;;6.00;4.00;;;;;26.15;34.02;102439.47;5049270;28;45579;-75
2023/01/31 14:30:03;;;;;;;;;5.67;5.67;;;;;26.12;34.09;102435.19;5024349;28;49171;-74
2023/01/31 14:32:34;;;;;;;;;5.33;5.00;;;;;26.12;34.26;102442.50;5049563;28;45442;-75
2023/01/31 14:35:21;;;;;;;;;4.33;4.33;;;;;26.16;33.80;102447.50;5053871;28;45491;-75
2023/01/31 14:38:23;;;;;;;;;6.00;4.00;;;;;26.22;34.18;102454.22;5048678;28;45755;-74
2023/01/31 14:41:12;;;;;;;;;5.33;5.33;;;;;26.25;33.68;102447.66;5050242;28;45484;-74
2023/01/31 14:43:50;;;;;;;;;6.00;6.00;;;;;26.28;34.15;102455.56;5052800;28;45632;-74
2023/01/31 14:46:18;;;;;;;;;6.33;5.00;;;;;26.28;33.71;102458.28;5046086;28;45456;-72
2023/01/31 14:49:04;;;;;;;;;4.67;4.67;;;;;26.27;34.24;102445.66;5051963;28;45414;-74
2023/01/31 14:51:54;;;;;;;;;5.00;5.00;;;;;26.23;34.29;102447.78;5050508;28;45424;-75
2023/01/31 14:54:27;;;;;;;;;5.00;4.00;;;;;26.29;33.54;102460.81;5049756;28;45705;-74
2023/01/31 14:56:54;;;;;;;;;5.00;5.00;;;;;26.30;34.19;102462.56;5045661;28;46105;-73
2023/01/31 14:59:34;;;;;;;;;5.00;5.00;;;;;26.32;34.31;102470.56;5052410;28;45531;-74
2023/01/31 15:02:18;;;;;;;;;4.67;4.67;;;;;26.32;34.39;102470.56;5050094;28;45480;-73
2023/01/31 15:04:52;;;;;;;;;5.00;5.00;;;;;26.31;33.93;102466.13;5056478;28;45440;-72
2023/01/31 15:07:18;;;;;;;;;3.67;3.67;;;;;26.31;34.18;102468.84;5043073;28;45423;-75
2023/01/31 15:09:45;;;;;;;;;6.67;5.67;;;;;26.30;34.05;102462.56;5061968;28;45278;-75
2023/01/31 15:12:48;;;;;;;;;5.00;5.00;;;;;26.31;33.67;102460.69;5038177;28;46116;-79
2023/01/31 15:15:32;;;;;;;;;4.00;4.00;;;;;26.32;34.34;102470.56;5054341;28;45457;-74
2023/01/31 15:18:02;;;;;;;;;8.00;5.00;;;;;26.29;34.22;102476.31;5050241;28;46442;-77
2023/01/31 15:20:42;;;;;;;;;3.67;3.67;;;;;26.33;34.33;102485.03;5049464;28;45825;-79
2023/01/31 15:23:17;;;;;;;;;5.00;5.00;;;;;26.36;34.08;102487.50;5055929;28;45377;-79
2023/01/31 15:25:45;;;;;;;;;6.00;5.00;;;;;26.37;34.08;102495.50;5050007;28;45682;-80
2023/01/31 15:28:27;;;;;;;;;7.67;4.67;;;;;26.41;34.03;102496.91;5041603;28;45507;-74
2023/01/31 15:30:56;;;;;;;;;4.00;4.00;;;;;26.46;34.29;102504.66;5046193;28;45483;-77
2023/01/31 15:33:30;;;;;;;;;4.00;3.00;;;;;26.50;33.77;102499.78;5051875;28;46199;-74
2023/01/31 15:36:05;;;;;;;;;4.00;4.00;;;;;26.53;33.80;102511.22;5054711;28;47313;-76
2023/01/31 15:38:46;;;;;;;;;5.00;5.00;;;;;26.55;34.01;102513.81;5051149;28;45917;-75
2023/01/31 15:41:21;;;;;;;;;4.33;4.33;;;;;26.58;33.91;102508.06;5048127;28;45396;-75
2023/01/31 15:43:49;;;;;;;;;7.33;5.00;;;;;26.57;34.26;102506.38;5054200;28;45930;-71
2023/01/31 15:46:17;;;;;;;;;5.33;5.33;;;;;26.61;33.83;102507.78;5053917;28;45520;-74
2023/01/31 15:48:43;;;;;;;;;5.00;5.00;;;;;26.59;34.17;102490.72;5046338;28;45869;-76
2023/01/31 15:51:12;;;;;;;;;6.33;6.00;;;;;26.60;33.85;102492.44;5036417;28;45559;-76
2023/01/31 15:53:38;;;;;;;;;3.33;3.33;;;;;26.61;34.05;102486.00;5054520;28;46187;-77
2023/01/31 15:56:07;;;;;;;;;6.00;5.50;;;;;26.61;34.25;102486.00;5054100;28;45429;-76
2023/01/31 15:58:35;;;;;;;;;5.00;5.00;;;;;26.64;33.79;102485.69;5053121;28;45472;-75
2023/01/31 16:01:02;;;;;;;;;3.00;3.00;;;;;26.69;34.13;102488.81;5049765;28;45411;-76
2023/01/31 16:03:31;;;;;;;;;6.00;6.00;;;;;26.74;34.08;102484.81;5047569;28;46237;-73
2023/01/31 16:05:58;;;;;;;;;4.33;4.33;;;;;26.80;34.42;102487.78;5044870;28;45562;-73
2023/01/31 16:08:35;;;;;;;;;3.00;3.00;;;;;26.89;33.92;102486.03;5049506;28;45434;-75
2023/01/31 16:11:06;;;;;;;;;7.67;4.67;;;;;26.98;34.08;102478.00;5055082;28;45440;-74
2023/01/31 16:13:35;;;;;;;;;4.67;4.67;;;;;27.05;33.99;102484.59;5053009;28;47079;-74
2023/01/31 16:16:03;;;;;;;;;6.33;5.00;;;;;27.13;34.25;102483.84;5054181;28;45393;-77
2023/01/31 16:18:29;;;;;;;;;4.00;2.00;;;;;27.19;34.35;102475.03;5033083;28;45401;-74
2023/01/31 16:20:56;;;;;;;;;5.67;4.67;;;;;27.25;34.26;102479.88;5052446;28;45825;-77
2023/01/31 16:23:25;;;;;;;;;8.33;6.00;;;;;27.30;34.02;102484.88;5047830;28;46146;-77
2023/01/31 16:26:04;;;;;;;;;3.67;3.33;;;;;27.33;33.93;102469.06;5026354;28;45530;-76
2023/01/31 16:28:37;;;;;;;;;4.67;4.00;;;;;27.36;33.83;102470.63;5055200;28;45885;-76
2023/01/31 16:31:05;;;;;;;;;4.67;4.67;;;;;27.41;33.75;102473.75;5052563;28;45557;-77
2023/01/31 16:33:31;;;;;;;;;2.00;2.00;;;;;27.43;33.59;102469.00;5045996;28;45511;-76
2023/01/31 16:36:05;;;;;;;;;4.33;3.67;;;;;27.45;34.23;102474.31;5049464;28;45727;-84
2023/01/31 16:38:30;;;;;;;;;5.00;5.00;;;;;27.44;33.57;102470.75;5049619;28;45571;-76
2023/01/31 16:40:59;;;;;;;;;6.00;4.00;;;;;27.38;33.43;102474.06;5051420;28;45431;-75
2023/01/31 16:43:30;;;;;;;;;6.00;6.00;;;;;27.27;33.68;102471.56;5054272;28;45413;-73
2023/01/31 16:45:59;;;;;;;;;4.33;4.33;;;;;27.17;33.19;102479.75;5052922;28;45492;-73
2023/01/31 16:48:35;;;;;;;;;6.00;5.00;;;;;27.05;33.66;102484.59;5046090;28;45382;-74
2023/01/31 16:51:30;;;;;;;;;4.00;4.00;;;;;26.90;33.43;102498.66;5042207;28;46396;-74
2023/01/31 16:54:23;;;;;;;;;6.67;5.67;;;;;26.78;33.00;102489.81;5039862;28;46598;-74
2023/01/31 16:57:00;;;;;;;;;5.00;5.00;;;;;26.68;33.15;102495.28;5052764;28;45714;-74
2023/01/31 16:59:37;;;;;;;;;5.33;5.00;;;;;26.59;33.27;102490.72;5054960;28;45420;-74
2023/01/31 17:02:23;;;;;;;;;5.67;4.67;;;;;26.50;33.09;102494.31;5039531;28;45395;-74
2023/01/31 17:04:51;;;;;;;;;4.67;4.67;;;;;26.42;32.99;102492.34;5051419;28;45409;-74
2023/01/31 17:07:34;;;;;;;;;6.00;5.33;;;;;26.34;32.73;102489.47;5042443;28;45492;-74
2023/01/31 17:10:03;;;;;;;;;5.00;5.00;;;;;26.27;33.33;102503.69;5054695;28;45532;-74
2023/01/31 17:12:32;;;;;;;;;6.00;6.00;;;;;26.21;32.65;102503.34;5050759;28;45472;-74
2023/01/31 17:14:58;;;;;;;;;6.00;6.00;;;;;26.15;33.20;102496.63;5054611;28;46267;-74
2023/01/31 17:17:33;;;;;;;;;5.00;5.00;;;;;26.10;32.68;102485.31;5050284;28;45428;-74
2023/01/31 17:19:58;;;;;;;;;7.67;7.67;;;;;26.04;32.88;102484.88;5039736;28;45508;-76
2023/01/31 17:22:24;;;;;;;;;6.00;4.00;;;;;25.98;32.80;102490.03;5033913;28;45433;-73
2023/01/31 17:24:50;;;;;;;;;6.67;5.67;;;;;25.89;32.84;102484.47;5026277;28;46190;-74
2023/01/31 17:27:18;;;;;;;;;3.00;2.00;;;;;25.88;32.75;102476.44;5047910;28;45482;-73
2023/01/31 17:29:46;;;;;;;;;6.00;4.67;;;;;25.83;32.77;102479.59;5049964;28;45550;-75
2023/01/31 17:32:16;;;;;;;;;4.00;4.00;;;;;25.78;33.08;102485.47;5047902;28;45508;-75
2023/01/31 17:34:43;;;;;;;;;4.00;4.00;;;;;25.76;32.93;102489.31;5046445;28;46273;-74
2023/01/31 17:37:09;;;;;;;;;5.00;5.00;;;;;25.73;33.00;102487.75;5052163;28;45700;-73
2023/01/31 17:39:35;;;;;;;;;7.00;6.67;;;;;25.69;33.04;102482.72;5052350;28;45395;-73
2023/01/31 17:42:00;;;;;;;;;5.33;4.00;;;;;25.68;33.10;102478.28;5045150;28;45635;-73
2023/01/31 17:44:25;;;;;;;;;9.33;5.00;;;;;25.64;32.53;102477.72;5050238;28;45488;-74
2023/01/31 17:46:51;;;;;;;;;6.33;6.00;;;;;25.61;32.62;102473.44;5036330;28;52492;-74
2023/01/31 17:49:16;;;;;;;;;5.33;4.67;;;;;25.59;32.76;102482.72;5046718;28;45611;-75
2023/01/31 17:51:41;;;;;;;;;7.00;6.00;;;;;25.57;32.72;102476.53;5039204;28;50360;-74
2023/01/31 17:54:07;;;;;;;;;4.00;4.00;;;;;25.52;32.71;102474.22;5053492;28;45380;-74
2023/01/31 17:56:33;;;;;;;;;5.00;5.00;;;;;25.49;32.81;102469.06;5051271;28;45587;-74
2023/01/31 17:58:58;;;;;;;;;6.33;5.00;;;;;25.48;32.61;102475.50;5053777;28;45389;-74
2023/01/31 18:01:23;;;;;;;;;6.33;5.67;;;;;25.45;32.58;102473.94;5049856;28;45638;-74
2023/01/31 18:03:49;;;;;;;;;4.00;4.00;;;;;25.42;32.59;102468.75;5050423;28;46094;-74
2023/01/31 18:06:15;;;;;;;;;9.00;6.00;;;;;25.39;32.85;102474.50;5040594;28;45457;-74
2023/01/31 18:08:40;;;;;;;;;8.00;6.33;;;;;25.37;33.00;102468.31;5045071;28;45871;-75
2023/01/31 18:11:09;;;;;;;;;6.33;6.33;;;;;25.32;32.63;102465.16;5031592;28;45478;-74
2023/01/31 18:13:36;;;;;;;;;3.67;3.67;;;;;25.27;32.96;102473.75;5033906;28;45838;-75
2023/01/31 18:16:09;;;;;;;;;5.00;4.33;;;;;25.25;32.87;102478.44;5045168;28;45397;-74
2023/01/31 18:18:36;;;;;;;;;6.33;5.00;;;;;25.21;32.54;102482.44;5043206;28;45473;-74
2023/01/31 18:21:04;;;;;;;;;5.67;5.00;;;;;25.17;32.71;102494.59;5045247;28;45503;-75
2023/01/31 18:23:29;;;;;;;;;6.33;6.00;;;;;25.15;32.98;102494.72;5050591;28;47277;-75
2023/01/31 18:25:55;;;;;;;;;4.00;4.00;;;;;25.09;32.79;102476.28;5044003;28;45763;-75